sensor_id;sensor_type;location;lat;lon;timestamp;pressure;altitude;pressure_sealevel;temperature
73685;BMP280;61985;51.070;14.064;2023-04-24T00:01:38;97487.22;;;11.13
73685;BMP280;61985;51.070;14.064;2023-04-24T00:04:04;97492.72;;;11.18
73685;BMP280;61985;51.070;14.064;2023-04-24T00:06:30;97489.91;;;11.13
73685;BMP280;61985;51.070;14.064;2023-04-24T00:09:00;97488.38;;;11.21
73685;BMP280;61985;51.070;14.064;2023-04-24T00:11:26;97484.03;;;11.23
73685;BMP280;61985;51.070;14.064;2023-04-24T00:13:53;97483.00;;;11.21
73685;BMP280;61985;51.070;14.064;2023-04-24T00:16:18;97479.66;;;11.26
73685;BMP280;61985;51.070;14.064;2023-04-24T00:18:44;97473.41;;;11.20
73685;BMP280;61985;51.070;14.064;2023-04-24T00:21:10;97464.84;;;11.21
73685;BMP280;61985;51.070;14.064;2023-04-24T00:23:35;97471.72;;;11.22
73685;BMP280;61985;51.070;14.064;2023-04-24T00:26:01;97476.22;;;11.25
73685;BMP280;61985;51.070;14.064;2023-04-24T00:28:27;97466.28;;;11.32
73685;BMP280;61985;51.070;14.064;2023-04-24T00:30:53;97467.34;;;11.34
73685;BMP280;61985;51.070;14.064;2023-04-24T00:33:19;97461.06;;;11.37
73685;BMP280;61985;51.070;14.064;2023-04-24T00:35:44;97452.47;;;11.39
73685;BMP280;61985;51.070;14.064;2023-04-24T00:38:09;97455.81;;;11.34
73685;BMP280;61985;51.070;14.064;2023-04-24T00:40:35;97442.63;;;11.36
73685;BMP280;61985;51.070;14.064;2023-04-24T00:43:00;97443.78;;;11.44
73685;BMP280;61985;51.070;14.064;2023-04-24T00:45:25;97444.28;;;11.33
73685;BMP280;61985;51.070;14.064;2023-04-24T00:47:52;97447.72;;;11.34
73685;BMP280;61985;51.070;14.064;2023-04-24T00:50:17;97452.66;;;11.35
73685;BMP280;61985;51.070;14.064;2023-04-24T00:52:43;97442.47;;;11.30
73685;BMP280;61985;51.070;14.064;2023-04-24T00:55:08;97442.31;;;11.34
73685;BMP280;61985;51.070;14.064;2023-04-24T00:57:34;97464.47;;;11.38
73685;BMP280;61985;51.070;14.064;2023-04-24T01:00:00;97470.59;;;11.38
73685;BMP280;61985;51.070;14.064;2023-04-24T01:02:25;97475.72;;;11.36
73685;BMP280;61985;51.070;14.064;2023-04-24T01:04:51;97477.69;;;11.36
73685;BMP280;61985;51.070;14.064;2023-04-24T01:07:19;97478.00;;;11.28
73685;BMP280;61985;51.070;14.064;2023-04-24T01:09:47;97480.09;;;11.24
73685;BMP280;61985;51.070;14.064;2023-04-24T01:12:15;97462.16;;;11.21
73685;BMP280;61985;51.070;14.064;2023-04-24T01:14:40;97469.97;;;11.19
73685;BMP280;61985;51.070;14.064;2023-04-24T01:17:06;97461.25;;;11.15
73685;BMP280;61985;51.070;14.064;2023-04-24T01:19:32;97465.16;;;11.23
73685;BMP280;61985;51.070;14.064;2023-04-24T01:21:58;97465.44;;;11.25
73685;BMP280;61985;51.070;14.064;2023-04-24T01:24:26;97458.41;;;11.28
73685;BMP280;61985;51.070;14.064;2023-04-24T01:26:52;97466.00;;;11.30
73685;BMP280;61985;51.070;14.064;2023-04-24T01:29:18;97456.16;;;11.26
73685;BMP280;61985;51.070;14.064;2023-04-24T01:31:45;97461.84;;;11.28
73685;BMP280;61985;51.070;14.064;2023-04-24T01:34:10;97455.81;;;11.34
73685;BMP280;61985;51.070;14.064;2023-04-24T01:36:36;97454.47;;;11.29
73685;BMP280;61985;51.070;14.064;2023-04-24T01:39:02;97448.16;;;11.32
73685;BMP280;61985;51.070;14.064;2023-04-24T01:41:29;97458.81;;;11.36
73685;BMP280;61985;51.070;14.064;2023-04-24T01:43:55;97452.47;;;11.39
73685;BMP280;61985;51.070;14.064;2023-04-24T01:46:21;97459.34;;;11.40
73685;BMP280;61985;51.070;14.064;2023-04-24T01:48:47;97456.13;;;11.36
73685;BMP280;61985;51.070;14.064;2023-04-24T01:51:14;97450.06;;;11.41
73685;BMP280;61985;51.070;14.064;2023-04-24T01:53:39;97465.22;;;11.38
73685;BMP280;61985;51.070;14.064;2023-04-24T01:56:05;97450.38;;;11.43
73685;BMP280;61985;51.070;14.064;2023-04-24T01:58:31;97446.31;;;11.38
73685;BMP280;61985;51.070;14.064;2023-04-24T02:00:57;97446.19;;;11.42
73685;BMP280;61985;51.070;14.064;2023-04-24T02:03:25;97451.59;;;11.42
73685;BMP280;61985;51.070;14.064;2023-04-24T02:05:50;97450.81;;;11.41
73685;BMP280;61985;51.070;14.064;2023-04-24T02:08:15;97440.78;;;11.42
73685;BMP280;61985;51.070;14.064;2023-04-24T02:10:41;97455.19;;;11.39
73685;BMP280;61985;51.070;14.064;2023-04-24T02:13:06;97448.03;;;11.36
73685;BMP280;61985;51.070;14.064;2023-04-24T02:15:31;97439.63;;;11.34
73685;BMP280;61985;51.070;14.064;2023-04-24T02:17:57;97449.50;;;11.37
73685;BMP280;61985;51.070;14.064;2023-04-24T02:20:22;97456.38;;;11.38
73685;BMP280;61985;51.070;14.064;2023-04-24T02:22:47;97442.63;;;11.36
73685;BMP280;61985;51.070;14.064;2023-04-24T02:25:13;97449.66;;;11.33
73685;BMP280;61985;51.070;14.064;2023-04-24T02:27:38;97453.56;;;11.32
73685;BMP280;61985;51.070;14.064;2023-04-24T02:30:04;97442.81;;;11.23
73685;BMP280;61985;51.070;14.064;2023-04-24T02:32:30;97441.81;;;11.20
73685;BMP280;61985;51.070;14.064;2023-04-24T02:34:57;97437.31;;;11.17
73685;BMP280;61985;51.070;14.064;2023-04-24T02:37:22;97435.59;;;11.05
73685;BMP280;61985;51.070;14.064;2023-04-24T02:39:47;97440.69;;;10.94
73685;BMP280;61985;51.070;14.064;2023-04-24T02:42:13;97444.59;;;10.93
73685;BMP280;61985;51.070;14.064;2023-04-24T02:44:38;97440.44;;;10.82
73685;BMP280;61985;51.070;14.064;2023-04-24T02:47:05;97436.88;;;10.76
73685;BMP280;61985;51.070;14.064;2023-04-24T02:49:30;97438.78;;;10.85
73685;BMP280;61985;51.070;14.064;2023-04-24T02:51:55;97443.16;;;10.73
73685;BMP280;61985;51.070;14.064;2023-04-24T02:54:20;97437.63;;;10.67
73685;BMP280;61985;51.070;14.064;2023-04-24T02:56:46;97442.75;;;10.56
73685;BMP280;61985;51.070;14.064;2023-04-24T02:59:12;97445.47;;;10.56
73685;BMP280;61985;51.070;14.064;2023-04-24T03:01:37;97443.47;;;10.57
73685;BMP280;61985;51.070;14.064;2023-04-24T03:04:02;97443.81;;;10.49
73685;BMP280;61985;51.070;14.064;2023-04-24T03:06:28;97445.00;;;10.48
73685;BMP280;61985;51.070;14.064;2023-04-24T03:08:53;97442.31;;;10.48
73685;BMP280;61985;51.070;14.064;2023-04-24T03:11:19;97444.09;;;10.52
73685;BMP280;61985;51.070;14.064;2023-04-24T03:13:47;97448.75;;;10.51
73685;BMP280;61985;51.070;14.064;2023-04-24T03:16:12;97442.03;;;10.56
73685;BMP280;61985;51.070;14.064;2023-04-24T03:18:37;97447.88;;;10.54
73685;BMP280;61985;51.070;14.064;2023-04-24T03:21:03;97447.69;;;10.58
73685;BMP280;61985;51.070;14.064;2023-04-24T03:23:28;97439.50;;;10.52
73685;BMP280;61985;51.070;14.064;2023-04-24T03:25:53;97440.78;;;10.57
73685;BMP280;61985;51.070;14.064;2023-04-24T03:28:21;97441.41;;;10.61
73685;BMP280;61985;51.070;14.064;2023-04-24T03:30:46;97438.72;;;10.61
73685;BMP280;61985;51.070;14.064;2023-04-24T03:33:12;97439.28;;;10.65
73685;BMP280;61985;51.070;14.064;2023-04-24T03:35:37;97437.19;;;10.69
73685;BMP280;61985;51.070;14.064;2023-04-24T03:38:04;97434.03;;;10.71
73685;BMP280;61985;51.070;14.064;2023-04-24T03:40:30;97441.09;;;10.68
73685;BMP280;61985;51.070;14.064;2023-04-24T03:42:55;97438.56;;;10.64
73685;BMP280;61985;51.070;14.064;2023-04-24T03:45:21;97444.97;;;10.67
73685;BMP280;61985;51.070;14.064;2023-04-24T03:47:46;97443.47;;;10.66
73685;BMP280;61985;51.070;14.064;2023-04-24T03:50:11;97447.66;;;10.67
73685;BMP280;61985;51.070;14.064;2023-04-24T03:52:37;97456.03;;;10.69
73685;BMP280;61985;51.070;14.064;2023-04-24T03:55:02;97456.94;;;10.66
73685;BMP280;61985;51.070;14.064;2023-04-24T03:57:27;97462.06;;;10.64
73685;BMP280;61985;51.070;14.064;2023-04-24T03:59:53;97465.66;;;10.52
73685;BMP280;61985;51.070;14.064;2023-04-24T04:02:18;97464.91;;;10.51
73685;BMP280;61985;51.070;14.064;2023-04-24T04:04:44;97471.03;;;10.52
73685;BMP280;61985;51.070;14.064;2023-04-24T04:07:09;97474.94;;;10.51
73685;BMP280;61985;51.070;14.064;2023-04-24T04:09:34;97476.44;;;10.52
73685;BMP280;61985;51.070;14.064;2023-04-24T04:12:00;97484.78;;;10.54
73685;BMP280;61985;51.070;14.064;2023-04-24T04:14:26;97481.50;;;10.59
73685;BMP280;61985;51.070;14.064;2023-04-24T04:16:51;97485.13;;;10.37
73685;BMP280;61985;51.070;14.064;2023-04-24T04:19:16;97477.78;;;10.28
73685;BMP280;61985;51.070;14.064;2023-04-24T04:21:42;97483.31;;;10.34
73685;BMP280;61985;51.070;14.064;2023-04-24T04:24:07;97480.03;;;10.30
73685;BMP280;61985;51.070;14.064;2023-04-24T04:26:32;97475.25;;;10.34
73685;BMP280;61985;51.070;14.064;2023-04-24T04:28:58;97487.66;;;10.41
73685;BMP280;61985;51.070;14.064;2023-04-24T04:31:25;97482.13;;;10.44
73685;BMP280;61985;51.070;14.064;2023-04-24T04:33:51;97486.63;;;10.47
73685;BMP280;61985;51.070;14.064;2023-04-24T04:36:16;97485.13;;;10.56
73685;BMP280;61985;51.070;14.064;2023-04-24T04:38:42;97482.69;;;10.67
73685;BMP280;61985;51.070;14.064;2023-04-24T04:41:08;97479.69;;;10.74
73685;BMP280;61985;51.070;14.064;2023-04-24T04:43:33;97480.41;;;10.84
73685;BMP280;61985;51.070;14.064;2023-04-24T04:46:00;97483.06;;;10.93
73685;BMP280;61985;51.070;14.064;2023-04-24T04:48:26;97481.09;;;11.03
73685;BMP280;61985;51.070;14.064;2023-04-24T04:50:52;97482.28;;;11.11
73685;BMP280;61985;51.070;14.064;2023-04-24T04:53:17;97480.00;;;11.19
73685;BMP280;61985;51.070;14.064;2023-04-24T04:55:42;97491.34;;;11.23
73685;BMP280;61985;51.070;14.064;2023-04-24T04:58:10;97481.63;;;11.25
73685;BMP280;61985;51.070;14.064;2023-04-24T05:00:35;97486.31;;;11.40
73685;BMP280;61985;51.070;14.064;2023-04-24T05:03:02;97482.72;;;11.43
73685;BMP280;61985;51.070;14.064;2023-04-24T05:05:28;97487.34;;;11.52
73685;BMP280;61985;51.070;14.064;2023-04-24T05:07:54;97485.97;;;11.56
73685;BMP280;61985;51.070;14.064;2023-04-24T05:10:19;97488.16;;;11.67
73685;BMP280;61985;51.070;14.064;2023-04-24T05:12:44;97487.97;;;11.71
73685;BMP280;61985;51.070;14.064;2023-04-24T05:15:10;97494.53;;;11.79
73685;BMP280;61985;51.070;14.064;2023-04-24T05:17:36;97495.09;;;11.83
73685;BMP280;61985;51.070;14.064;2023-04-24T05:20:02;97496.69;;;11.90
73685;BMP280;61985;51.070;14.064;2023-04-24T05:22:30;97500.25;;;11.96
73685;BMP280;61985;51.070;14.064;2023-04-24T05:24:56;97503.34;;;12.03
73685;BMP280;61985;51.070;14.064;2023-04-24T05:27:21;97491.13;;;12.08
73685;BMP280;61985;51.070;14.064;2023-04-24T05:29:46;97494.44;;;12.12
73685;BMP280;61985;51.070;14.064;2023-04-24T05:32:12;97493.03;;;12.17
73685;BMP280;61985;51.070;14.064;2023-04-24T05:34:37;97495.53;;;12.20
73685;BMP280;61985;51.070;14.064;2023-04-24T05:37:02;97491.91;;;12.23
73685;BMP280;61985;51.070;14.064;2023-04-24T05:39:28;97495.19;;;12.27
73685;BMP280;61985;51.070;14.064;2023-04-24T05:41:54;97493.53;;;12.30
73685;BMP280;61985;51.070;14.064;2023-04-24T05:44:21;97507.88;;;12.36
73685;BMP280;61985;51.070;14.064;2023-04-24T05:46:46;97500.22;;;12.35
73685;BMP280;61985;51.070;14.064;2023-04-24T05:49:12;97501.09;;;12.41
73685;BMP280;61985;51.070;14.064;2023-04-24T05:51:37;97505.84;;;12.46
73685;BMP280;61985;51.070;14.064;2023-04-24T05:54:07;97508.66;;;12.52
73685;BMP280;61985;51.070;14.064;2023-04-24T05:56:32;97502.31;;;12.55
73685;BMP280;61985;51.070;14.064;2023-04-24T05:59:01;97502.84;;;12.59
73685;BMP280;61985;51.070;14.064;2023-04-24T06:01:26;97501.94;;;12.62
73685;BMP280;61985;51.070;14.064;2023-04-24T06:03:51;97508.63;;;12.66
73685;BMP280;61985;51.070;14.064;2023-04-24T06:06:17;97499.13;;;12.71
73685;BMP280;61985;51.070;14.064;2023-04-24T06:08:44;97511.06;;;12.79
73685;BMP280;61985;51.070;14.064;2023-04-24T06:11:10;97507.31;;;12.77
73685;BMP280;61985;51.070;14.064;2023-04-24T06:13:35;97504.16;;;12.78
73685;BMP280;61985;51.070;14.064;2023-04-24T06:16:02;97505.00;;;12.84
73685;BMP280;61985;51.070;14.064;2023-04-24T06:18:27;97508.44;;;12.85
73685;BMP280;61985;51.070;14.064;2023-04-24T06:20:52;97501.16;;;12.91
73685;BMP280;61985;51.070;14.064;2023-04-24T06:23:18;97501.00;;;12.95
73685;BMP280;61985;51.070;14.064;2023-04-24T06:25:44;97502.34;;;13.05
73685;BMP280;61985;51.070;14.064;2023-04-24T06:28:09;97500.59;;;13.02
73685;BMP280;61985;51.070;14.064;2023-04-24T06:30:35;97506.56;;;13.06
73685;BMP280;61985;51.070;14.064;2023-04-24T06:33:00;97509.16;;;13.15
73685;BMP280;61985;51.070;14.064;2023-04-24T06:35:25;97502.03;;;13.18
73685;BMP280;61985;51.070;14.064;2023-04-24T06:37:51;97511.66;;;13.19
73685;BMP280;61985;51.070;14.064;2023-04-24T06:40:16;97506.88;;;13.29
73685;BMP280;61985;51.070;14.064;2023-04-24T06:42:43;97510.88;;;13.33
73685;BMP280;61985;51.070;14.064;2023-04-24T06:45:09;97514.56;;;13.51
73685;BMP280;61985;51.070;14.064;2023-04-24T06:47:34;97511.19;;;13.56
73685;BMP280;61985;51.070;14.064;2023-04-24T06:50:00;97507.63;;;13.64
73685;BMP280;61985;51.070;14.064;2023-04-24T06:52:25;97508.56;;;13.61
73685;BMP280;61985;51.070;14.064;2023-04-24T06:54:51;97505.88;;;13.61
73685;BMP280;61985;51.070;14.064;2023-04-24T06:57:17;97514.25;;;13.63
73685;BMP280;61985;51.070;14.064;2023-04-24T06:59:42;97511.78;;;13.65
73685;BMP280;61985;51.070;14.064;2023-04-24T07:02:08;97514.50;;;13.65
73685;BMP280;61985;51.070;14.064;2023-04-24T07:04:33;97519.09;;;13.59
73685;BMP280;61985;51.070;14.064;2023-04-24T07:06:59;97513.84;;;13.71
73685;BMP280;61985;51.070;14.064;2023-04-24T07:09:25;97519.19;;;13.65
73685;BMP280;61985;51.070;14.064;2023-04-24T07:11:54;97517.78;;;13.70
73685;BMP280;61985;51.070;14.064;2023-04-24T07:14:21;97517.22;;;13.65
73685;BMP280;61985;51.070;14.064;2023-04-24T07:16:46;97519.91;;;13.65
73685;BMP280;61985;51.070;14.064;2023-04-24T07:19:13;97526.13;;;13.72
73685;BMP280;61985;51.070;14.064;2023-04-24T07:21:39;97529.41;;;13.76
73685;BMP280;61985;51.070;14.064;2023-04-24T07:24:04;97531.25;;;13.84
73685;BMP280;61985;51.070;14.064;2023-04-24T07:26:30;97533.81;;;13.94
73685;BMP280;61985;51.070;14.064;2023-04-24T07:28:55;97529.94;;;14.00
73685;BMP280;61985;51.070;14.064;2023-04-24T07:31:21;97536.72;;;14.11
73685;BMP280;61985;51.070;14.064;2023-04-24T07:33:48;97531.50;;;14.07
73685;BMP280;61985;51.070;14.064;2023-04-24T07:36:13;97542.94;;;14.17
73685;BMP280;61985;51.070;14.064;2023-04-24T07:38:44;97536.28;;;14.38
73685;BMP280;61985;51.070;14.064;2023-04-24T07:41:09;97529.03;;;14.30
73685;BMP280;61985;51.070;14.064;2023-04-24T07:43:35;97539.28;;;14.46
73685;BMP280;61985;51.070;14.064;2023-04-24T07:46:00;97529.34;;;14.63
73685;BMP280;61985;51.070;14.064;2023-04-24T07:48:27;97545.13;;;14.65
73685;BMP280;61985;51.070;14.064;2023-04-24T07:50:53;97544.19;;;14.68
73685;BMP280;61985;51.070;14.064;2023-04-24T07:53:18;97533.94;;;14.83
73685;BMP280;61985;51.070;14.064;2023-04-24T07:55:44;97539.91;;;14.87
73685;BMP280;61985;51.070;14.064;2023-04-24T07:58:09;97540.50;;;14.71
73685;BMP280;61985;51.070;14.064;2023-04-24T08:00:34;97543.25;;;14.77
73685;BMP280;61985;51.070;14.064;2023-04-24T08:03:00;97541.31;;;14.83
73685;BMP280;61985;51.070;14.064;2023-04-24T08:05:27;97537.19;;;14.87
73685;BMP280;61985;51.070;14.064;2023-04-24T08:07:54;97540.00;;;14.99
73685;BMP280;61985;51.070;14.064;2023-04-24T08:10:21;97544.72;;;15.04
73685;BMP280;61985;51.070;14.064;2023-04-24T08:12:46;97551.44;;;14.82
73685;BMP280;61985;51.070;14.064;2023-04-24T08:15:11;97550.63;;;14.76
73685;BMP280;61985;51.070;14.064;2023-04-24T08:17:37;97550.69;;;14.82
73685;BMP280;61985;51.070;14.064;2023-04-24T08:20:03;97544.09;;;14.88
73685;BMP280;61985;51.070;14.064;2023-04-24T08:22:30;97536.22;;;14.91
73685;BMP280;61985;51.070;14.064;2023-04-24T08:24:56;97541.22;;;14.98
73685;BMP280;61985;51.070;14.064;2023-04-24T08:27:22;97537.88;;;15.14
73685;BMP280;61985;51.070;14.064;2023-04-24T08:29:48;97544.00;;;15.09
73685;BMP280;61985;51.070;14.064;2023-04-24T08:32:13;97545.34;;;15.31
73685;BMP280;61985;51.070;14.064;2023-04-24T08:34:38;97543.38;;;15.25
73685;BMP280;61985;51.070;14.064;2023-04-24T08:37:04;97554.47;;;15.27
73685;BMP280;61985;51.070;14.064;2023-04-24T08:39:29;97545.97;;;15.08
73685;BMP280;61985;51.070;14.064;2023-04-24T08:41:55;97543.97;;;15.03
73685;BMP280;61985;51.070;14.064;2023-04-24T08:44:21;97537.44;;;14.90
73685;BMP280;61985;51.070;14.064;2023-04-24T08:46:47;97537.88;;;14.82
73685;BMP280;61985;51.070;14.064;2023-04-24T08:49:14;97547.72;;;14.80
73685;BMP280;61985;51.070;14.064;2023-04-24T08:51:42;97540.66;;;14.94
73685;BMP280;61985;51.070;14.064;2023-04-24T08:54:08;97542.09;;;14.83
73685;BMP280;61985;51.070;14.064;2023-04-24T08:56:35;97543.69;;;15.01
73685;BMP280;61985;51.070;14.064;2023-04-24T08:59:03;97545.91;;;15.03
73685;BMP280;61985;51.070;14.064;2023-04-24T09:01:32;97549.16;;;15.07
73685;BMP280;61985;51.070;14.064;2023-04-24T09:04:00;97542.22;;;15.06
73685;BMP280;61985;51.070;14.064;2023-04-24T09:06:27;97542.84;;;15.21
73685;BMP280;61985;51.070;14.064;2023-04-24T09:08:53;97544.47;;;15.45
73685;BMP280;61985;51.070;14.064;2023-04-24T09:11:19;97535.16;;;15.57
73685;BMP280;61985;51.070;14.064;2023-04-24T09:13:45;97544.56;;;15.67
73685;BMP280;61985;51.070;14.064;2023-04-24T09:16:11;97542.16;;;15.81
73685;BMP280;61985;51.070;14.064;2023-04-24T09:18:36;97528.25;;;15.56
73685;BMP280;61985;51.070;14.064;2023-04-24T09:21:09;97542.00;;;15.47
73685;BMP280;61985;51.070;14.064;2023-04-24T09:23:35;97538.97;;;15.34
73685;BMP280;61985;51.070;14.064;2023-04-24T09:26:05;97539.50;;;15.06
73685;BMP280;61985;51.070;14.064;2023-04-24T09:28:35;97539.97;;;14.67
73685;BMP280;61985;51.070;14.064;2023-04-24T09:31:09;97540.28;;;14.48
73685;BMP280;61985;51.070;14.064;2023-04-24T09:33:36;97523.28;;;14.22
73685;BMP280;61985;51.070;14.064;2023-04-24T09:36:02;97528.28;;;14.29
73685;BMP280;61985;51.070;14.064;2023-04-24T09:38:33;97530.19;;;14.23
73685;BMP280;61985;51.070;14.064;2023-04-24T09:41:00;97520.34;;;14.20
73685;BMP280;61985;51.070;14.064;2023-04-24T09:43:28;97532.91;;;14.02
73685;BMP280;61985;51.070;14.064;2023-04-24T09:45:56;97545.31;;;13.89
73685;BMP280;61985;51.070;14.064;2023-04-24T09:48:35;97564.38;;;13.79
73685;BMP280;61985;51.070;14.064;2023-04-24T09:51:02;97570.13;;;13.66
73685;BMP280;61985;51.070;14.064;2023-04-24T09:53:29;97580.16;;;13.45
73685;BMP280;61985;51.070;14.064;2023-04-24T09:55:55;97577.69;;;13.27
73685;BMP280;61985;51.070;14.064;2023-04-24T09:58:28;97562.97;;;13.13
73685;BMP280;61985;51.070;14.064;2023-04-24T10:08:39;97554.28;;;13.59
73685;BMP280;61985;51.070;14.064;2023-04-24T10:11:08;97552.41;;;13.65
73685;BMP280;61985;51.070;14.064;2023-04-24T10:13:37;97550.53;;;13.92
73685;BMP280;61985;51.070;14.064;2023-04-24T10:16:05;97559.88;;;13.91
73685;BMP280;61985;51.070;14.064;2023-04-24T10:18:32;97551.97;;;13.88
73685;BMP280;61985;51.070;14.064;2023-04-24T10:20:59;97550.94;;;14.05
73685;BMP280;61985;51.070;14.064;2023-04-24T10:26:02;97546.94;;;14.01
73685;BMP280;61985;51.070;14.064;2023-04-24T10:28:29;97554.03;;;14.19
73685;BMP280;61985;51.070;14.064;2023-04-24T10:30:57;97557.28;;;14.23
73685;BMP280;61985;51.070;14.064;2023-04-24T10:33:23;97553.34;;;14.24
73685;BMP280;61985;51.070;14.064;2023-04-24T10:35:50;97553.78;;;14.17
73685;BMP280;61985;51.070;14.064;2023-04-24T10:38:56;97562.56;;;14.12
73685;BMP280;61985;51.070;14.064;2023-04-24T10:41:25;97557.91;;;14.12
73685;BMP280;61985;51.070;14.064;2023-04-24T10:44:14;97561.31;;;14.33
73685;BMP280;61985;51.070;14.064;2023-04-24T11:14:15;97545.09;;;15.72
73685;BMP280;61985;51.070;14.064;2023-04-24T11:19:29;97542.16;;;15.81
73685;BMP280;61985;51.070;14.064;2023-04-24T11:22:04;97543.88;;;15.73
73685;BMP280;61985;51.070;14.064;2023-04-24T11:29:48;97551.91;;;15.50
73685;BMP280;61985;51.070;14.064;2023-04-24T11:42:53;97552.41;;;15.17
73685;BMP280;61985;51.070;14.064;2023-04-24T11:45:28;97548.78;;;15.25
73685;BMP280;61985;51.070;14.064;2023-04-24T12:31:56;97531.53;;;15.77
73685;BMP280;61985;51.070;14.064;2023-04-24T12:34:25;97536.44;;;15.62
73685;BMP280;61985;51.070;14.064;2023-04-24T12:36:52;97533.66;;;15.56
73685;BMP280;61985;51.070;14.064;2023-04-24T12:41:56;97533.41;;;15.54
73685;BMP280;61985;51.070;14.064;2023-04-24T12:44:42;97535.78;;;15.95
73685;BMP280;61985;51.070;14.064;2023-04-24T12:47:07;97534.09;;;16.20
73685;BMP280;61985;51.070;14.064;2023-04-24T12:49:34;97536.59;;;16.24
73685;BMP280;61985;51.070;14.064;2023-04-24T12:51:59;97532.84;;;16.04
73685;BMP280;61985;51.070;14.064;2023-04-24T12:54:25;97534.81;;;16.09
73685;BMP280;61985;51.070;14.064;2023-04-24T12:56:50;97527.69;;;16.12
73685;BMP280;61985;51.070;14.064;2023-04-24T12:59:15;97535.31;;;16.02
73685;BMP280;61985;51.070;14.064;2023-04-24T13:01:41;97531.84;;;16.07
73685;BMP280;61985;51.070;14.064;2023-04-24T13:04:06;97538.59;;;16.57
73685;BMP280;61985;51.070;14.064;2023-04-24T13:06:32;97525.00;;;16.63
73685;BMP280;61985;51.070;14.064;2023-04-24T13:08:57;97526.25;;;16.56
73685;BMP280;61985;51.070;14.064;2023-04-24T13:11:24;97518.34;;;16.64
73685;BMP280;61985;51.070;14.064;2023-04-24T13:13:50;97515.88;;;16.55
73685;BMP280;61985;51.070;14.064;2023-04-24T13:16:16;97515.38;;;16.67
73685;BMP280;61985;51.070;14.064;2023-04-24T13:18:41;97509.69;;;16.48
73685;BMP280;61985;51.070;14.064;2023-04-24T13:21:06;97515.13;;;16.48
73685;BMP280;61985;51.070;14.064;2023-04-24T13:23:32;97512.91;;;16.58
73685;BMP280;61985;51.070;14.064;2023-04-24T13:25:57;97511.66;;;16.42
73685;BMP280;61985;51.070;14.064;2023-04-24T13:28:23;97515.81;;;16.15
73685;BMP280;61985;51.070;14.064;2023-04-24T13:30:48;97521.72;;;16.02
73685;BMP280;61985;51.070;14.064;2023-04-24T13:33:15;97520.72;;;15.88
73685;BMP280;61985;51.070;14.064;2023-04-24T13:35:40;97518.22;;;15.79
73685;BMP280;61985;51.070;14.064;2023-04-24T13:38:05;97515.00;;;15.81
73685;BMP280;61985;51.070;14.064;2023-04-24T13:40:31;97520.38;;;15.69
73685;BMP280;61985;51.070;14.064;2023-04-24T13:42:57;97521.38;;;15.66
73685;BMP280;61985;51.070;14.064;2023-04-24T13:45:22;97523.63;;;15.74
73685;BMP280;61985;51.070;14.064;2023-04-24T13:47:49;97519.44;;;15.73
73685;BMP280;61985;51.070;14.064;2023-04-24T13:50:14;97526.13;;;15.77
73685;BMP280;61985;51.070;14.064;2023-04-24T13:52:41;97523.13;;;15.75
73685;BMP280;61985;51.070;14.064;2023-04-24T13:55:07;97507.69;;;16.26
73685;BMP280;61985;51.070;14.064;2023-04-24T13:57:34;97507.22;;;16.50
73685;BMP280;61985;51.070;14.064;2023-04-24T13:59:59;97509.44;;;16.63
73685;BMP280;61985;51.070;14.064;2023-04-24T14:02:27;97510.91;;;16.92
73685;BMP280;61985;51.070;14.064;2023-04-24T14:04:52;97508.69;;;17.66
73685;BMP280;61985;51.070;14.064;2023-04-24T14:07:18;97506.19;;;18.10
73685;BMP280;61985;51.070;14.064;2023-04-24T14:09:43;97513.84;;;18.23
73685;BMP280;61985;51.070;14.064;2023-04-24T14:12:08;97508.69;;;18.13
73685;BMP280;61985;51.070;14.064;2023-04-24T14:14:34;97506.97;;;18.05
73685;BMP280;61985;51.070;14.064;2023-04-24T14:16:59;97511.69;;;17.57
73685;BMP280;61985;51.070;14.064;2023-04-24T14:19:25;97512.53;;;17.29
73685;BMP280;61985;51.070;14.064;2023-04-24T14:21:50;97510.19;;;16.64
73685;BMP280;61985;51.070;14.064;2023-04-24T14:24:16;97531.69;;;16.34
73685;BMP280;61985;51.070;14.064;2023-04-24T14:26:41;97532.34;;;16.00
73685;BMP280;61985;51.070;14.064;2023-04-24T14:29:06;97525.31;;;15.65
73685;BMP280;61985;51.070;14.064;2023-04-24T14:31:32;97521.56;;;15.63
73685;BMP280;61985;51.070;14.064;2023-04-24T14:33:57;97521.81;;;15.59
73685;BMP280;61985;51.070;14.064;2023-04-24T14:36:22;97518.69;;;15.78
73685;BMP280;61985;51.070;14.064;2023-04-24T14:38:48;97511.13;;;16.10
73685;BMP280;61985;51.070;14.064;2023-04-24T14:41:19;97505.72;;;16.72
73685;BMP280;61985;51.070;14.064;2023-04-24T14:43:45;97504.59;;;17.37
73685;BMP280;61985;51.070;14.064;2023-04-24T14:46:10;97504.41;;;17.82
73685;BMP280;61985;51.070;14.064;2023-04-24T14:48:36;97499.59;;;17.58
73685;BMP280;61985;51.070;14.064;2023-04-24T14:51:01;97502.63;;;17.38
73685;BMP280;61985;51.070;14.064;2023-04-24T14:53:26;97503.66;;;17.23
73685;BMP280;61985;51.070;14.064;2023-04-24T14:55:55;97507.88;;;17.19
73685;BMP280;61985;51.070;14.064;2023-04-24T14:58:22;97522.66;;;17.40
73685;BMP280;61985;51.070;14.064;2023-04-24T15:00:47;97503.09;;;17.42
73685;BMP280;61985;51.070;14.064;2023-04-24T15:03:15;97518.75;;;17.24
73685;BMP280;61985;51.070;14.064;2023-04-24T15:05:41;97509.94;;;16.90
73685;BMP280;61985;51.070;14.064;2023-04-24T15:08:06;97520.50;;;17.10
73685;BMP280;61985;51.070;14.064;2023-04-24T15:10:31;97513.38;;;16.51
73685;BMP280;61985;51.070;14.064;2023-04-24T15:12:57;97522.53;;;16.87
73685;BMP280;61985;51.070;14.064;2023-04-24T15:15:22;97524.84;;;17.59
73685;BMP280;61985;51.070;14.064;2023-04-24T15:17:49;97530.50;;;17.61
73685;BMP280;61985;51.070;14.064;2023-04-24T15:20:14;97531.16;;;17.08
73685;BMP280;61985;51.070;14.064;2023-04-24T15:22:39;97535.28;;;17.43
73685;BMP280;61985;51.070;14.064;2023-04-24T15:25:05;97535.78;;;17.47
73685;BMP280;61985;51.070;14.064;2023-04-24T15:27:44;97540.09;;;16.86
73685;BMP280;61985;51.070;14.064;2023-04-24T15:30:09;97540.78;;;16.25
73685;BMP280;61985;51.070;14.064;2023-04-24T15:32:36;97537.28;;;15.96
73685;BMP280;61985;51.070;14.064;2023-04-24T15:35:01;97542.44;;;15.88